createdAt,value
2019-04-21T00:02:03.408Z,98175.70
2019-04-21T00:05:37.345Z,98174.11
2019-04-21T00:08:57.839Z,98175.63
2019-04-21T00:11:53.963Z,98175.45
2019-04-21T00:14:46.269Z,98172.08
2019-04-21T00:17:49.796Z,98166.05
2019-04-21T00:20:56.890Z,98158.88
2019-04-21T00:24:30.518Z,98159.52
2019-04-21T00:27:33.723Z,98154.31
2019-04-21T00:30:53.912Z,98157.19
2019-04-21T00:33:39.885Z,98152.50
2019-04-21T00:36:55.912Z,98144.71
2019-04-21T00:40:16.603Z,98135.45
2019-04-21T00:43:19.883Z,98140.97
2019-04-21T00:46:26.383Z,98132.63
2019-04-21T00:49:34.074Z,98132.00
2019-04-21T00:53:16.906Z,98129.48
2019-04-21T00:56:09.981Z,98125.42
2019-04-21T00:59:21.396Z,98119.38
2019-04-21T01:02:27.920Z,98115.70
2019-04-21T01:05:37.538Z,98116.36
2019-04-21T01:08:42.879Z,98108.41
2019-04-21T01:11:51.885Z,98109.77
2019-04-21T01:15:06.546Z,98100.70
2019-04-21T01:18:04.732Z,98110.12
2019-04-21T01:20:52.240Z,98104.05
2019-04-21T01:24:07.936Z,98114.53
2019-04-21T01:27:21.174Z,98109.98
2019-04-21T01:30:34.594Z,98101.68
2019-04-21T01:33:44.956Z,98104.59
2019-04-21T01:36:53.014Z,98100.27
2019-04-21T01:40:14.764Z,98093.27
2019-04-21T01:43:07.782Z,98088.73
2019-04-21T01:46:18.015Z,98091.70
2019-04-21T01:49:18.176Z,98084.14
2019-04-21T01:52:45.062Z,98092.34
2019-04-21T01:55:52.865Z,98080.48
2019-04-21T01:58:46.199Z,98080.17
2019-04-21T02:02:08.113Z,98082.65
2019-04-21T02:05:17.218Z,98076.73
2019-04-21T02:08:15.396Z,98075.36
2019-04-21T02:11:31.240Z,98080.48
2019-04-21T02:14:45.855Z,98078.87
2019-04-21T02:17:49.696Z,98073.46
2019-04-21T02:20:45.652Z,98071.83
2019-04-21T02:24:04.705Z,98074.71
2019-04-21T02:27:14.995Z,98074.97
2019-04-21T02:30:27.514Z,98070.33
2019-04-21T02:39:57.261Z,98067.84
2019-04-21T02:43:07.322Z,98061.83
2019-04-21T02:46:19.551Z,98061.88
2019-04-21T02:49:22.170Z,98059.98
2019-04-21T02:52:30.985Z,98052.23
2019-04-21T02:55:34.121Z,98054.08
2019-04-21T03:02:35.180Z,98039.21
2019-04-21T03:05:50.779Z,98038.83
2019-04-21T03:09:18.431Z,98034.80
2019-04-21T03:12:11.602Z,98030.92
2019-04-21T03:18:32.721Z,98027.39
2019-04-21T03:21:38.770Z,98025.20
2019-04-21T03:27:57.262Z,98017.95
2019-04-21T03:31:25.557Z,98013.49
2019-04-21T03:34:41.166Z,98018.64
2019-04-21T03:40:23.976Z,98009.52
2019-04-21T03:43:34.560Z,98005.33
2019-04-21T03:47:01.585Z,98006.94
2019-04-21T03:50:01.882Z,97999.39
2019-04-21T03:56:16.118Z,97998.65
2019-04-21T03:59:14.222Z,97999.73
2019-04-21T04:02:36.605Z,98000.79
2019-04-21T04:09:19.450Z,97999.09
2019-04-21T04:12:20.961Z,97997.67
2019-04-21T04:15:38.604Z,97993.92
2019-04-21T04:18:48.698Z,97995.42
2019-04-21T04:22:04.330Z,97995.00
2019-04-21T04:24:57.526Z,97997.97
2019-04-21T04:31:22.247Z,98006.88
2019-04-21T04:34:21.756Z,97996.84
2019-04-21T04:37:32.090Z,97999.38
2019-04-21T04:40:43.345Z,97995.94
2019-04-21T04:43:56.737Z,97995.53
2019-04-21T04:50:26.305Z,97995.48
2019-04-21T04:53:25.866Z,97992.67
2019-04-21T05:12:38.789Z,97998.02
2019-04-21T05:15:50.536Z,97997.72
2019-04-21T05:19:04.194Z,98006.08
2019-04-21T05:22:03.464Z,98003.67
2019-04-21T05:25:02.418Z,98002.89
2019-04-21T05:28:04.564Z,98000.98
2019-04-21T05:35:00.153Z,97999.98
2019-04-21T05:38:06.252Z,98001.31
2019-04-21T05:41:06.533Z,98005.50
2019-04-21T05:44:31.180Z,98007.52
2019-04-21T05:48:03.234Z,98004.59
2019-04-21T05:50:58.879Z,97999.47
2019-04-21T05:54:17.787Z,97997.13
2019-04-21T05:57:15.992Z,97998.59
2019-04-21T06:00:39.091Z,97995.86
2019-04-21T06:03:44.881Z,97995.45
2019-04-21T06:06:48.047Z,97997.03
2019-04-21T06:09:57.172Z,97990.89
2019-04-21T06:13:05.820Z,97993.66
2019-04-21T06:16:08.888Z,97998.62
2019-04-21T06:19:35.158Z,97997.36
2019-04-21T06:22:28.862Z,97997.16
2019-04-21T06:25:50.384Z,97996.63
2019-04-21T06:28:50.369Z,97996.28
2019-04-21T06:35:35.984Z,97992.02
2019-04-21T06:39:12.046Z,97986.59
2019-04-21T06:41:59.826Z,97984.94
2019-04-21T06:45:31.823Z,97986.66
2019-04-21T06:48:20.988Z,97985.14
2019-04-21T06:51:27.632Z,97980.05
2019-04-21T06:54:33.916Z,97983.30
2019-04-21T06:57:40.299Z,97978.58
2019-04-21T07:00:42.435Z,97984.59
2019-04-21T07:04:06.862Z,97980.98
2019-04-21T07:07:18.259Z,97981.20
2019-04-21T07:10:26.603Z,97978.08
2019-04-21T07:13:21.139Z,97982.97
2019-04-21T07:16:31.868Z,97975.89
2019-04-21T07:19:42.725Z,97973.08
2019-04-21T07:22:51.176Z,97977.84
2019-04-21T07:25:54.817Z,97974.75
2019-04-21T07:29:07.938Z,97970.52
2019-04-21T07:32:12.122Z,97966.58
2019-04-21T07:35:22.080Z,97968.91
2019-04-21T07:38:31.819Z,97960.63
2019-04-21T07:41:30.986Z,97963.91
2019-04-21T07:44:35.041Z,97963.82
2019-04-21T07:47:57.888Z,97969.01
2019-04-21T07:51:31.535Z,97967.31
2019-04-21T07:54:44.349Z,97957.47
2019-04-21T07:57:49.709Z,97958.41
2019-04-21T08:01:04.304Z,97954.69
2019-04-21T08:04:14.727Z,97945.19
2019-04-21T08:07:12.897Z,97943.82
2019-04-21T08:10:23.170Z,97947.71
2019-04-21T08:13:34.509Z,97941.87
2019-04-21T08:16:36.812Z,97941.82
2019-04-21T08:19:43.011Z,97943.31
2019-04-21T08:23:13.172Z,97940.69
2019-04-21T08:26:15.148Z,97937.72
2019-04-21T08:29:22.464Z,97942.27
2019-04-21T08:32:26.580Z,97942.86
2019-04-21T08:36:00.781Z,97937.77
2019-04-21T08:38:37.778Z,97934.65
2019-04-21T08:41:43.941Z,97929.88
2019-04-21T08:44:52.711Z,97931.45
2019-04-21T08:47:59.163Z,97930.24
2019-04-21T08:51:22.531Z,97923.08
2019-04-21T08:54:23.612Z,97925.26
2019-04-21T08:57:53.874Z,97921.03
2019-04-21T09:01:11.697Z,97920.55
2019-04-21T09:04:21.222Z,97912.75
2019-04-21T09:10:34.932Z,97905.88
2019-04-21T09:13:44.264Z,97896.91
2019-04-21T09:16:50.294Z,97903.53
2019-04-21T09:20:07.956Z,97894.92
2019-04-21T09:23:11.070Z,97890.59
2019-04-21T09:26:20.069Z,97889.56
2019-04-21T09:29:15.868Z,97886.77
2019-04-21T09:32:20.333Z,97889.02
2019-04-21T09:35:25.318Z,97876.69
2019-04-21T09:38:38.010Z,97866.95
2019-04-21T09:41:41.077Z,97879.84
2019-04-21T09:44:52.255Z,97875.26
2019-04-21T09:48:02.696Z,97862.79
2019-04-21T09:51:04.718Z,97866.39
2019-04-21T09:54:20.165Z,97855.45
2019-04-21T09:57:27.668Z,97857.55
2019-04-21T10:00:31.385Z,97854.70
2019-04-21T10:03:41.302Z,97855.38
2019-04-21T10:06:43.822Z,97854.98
2019-04-21T10:09:52.450Z,97855.55
2019-04-21T10:12:59.005Z,97848.81
2019-04-21T10:16:37.004Z,97849.84
2019-04-21T10:19:44.139Z,97846.37
2019-04-21T10:22:50.958Z,97836.72
2019-04-21T10:25:59.007Z,97840.68
2019-04-21T10:29:09.400Z,97835.98
2019-04-21T10:32:13.694Z,97828.82
2019-04-21T10:35:21.775Z,97826.77
2019-04-21T10:38:36.770Z,97829.72
2019-04-21T10:41:37.347Z,97825.59
2019-04-21T10:44:45.035Z,97812.81
2019-04-21T10:47:52.896Z,97804.00
2019-04-21T10:50:59.312Z,97804.61
2019-04-21T10:54:06.322Z,97811.52
2019-04-21T10:57:17.500Z,97809.45
2019-04-21T11:00:24.164Z,97803.05
2019-04-21T11:03:40.382Z,97791.66
2019-04-21T11:06:48.223Z,97796.02
2019-04-21T11:09:56.080Z,97787.14
2019-04-21T11:13:02.921Z,97780.70
2019-04-21T11:16:09.453Z,97778.64
2019-04-21T11:19:16.183Z,97770.71
2019-04-21T11:22:23.080Z,97773.21
2019-04-21T11:25:30.461Z,97764.02
2019-04-21T11:28:36.992Z,97758.88
2019-04-21T11:31:43.418Z,97747.95
2019-04-21T11:34:51.409Z,97750.23
2019-04-21T11:38:08.367Z,97753.24
2019-04-21T11:41:11.947Z,97745.31
2019-04-21T11:44:22.846Z,97743.41
2019-04-21T11:47:32.382Z,97738.53
2019-04-21T11:50:39.205Z,97735.63
2019-04-21T11:53:46.649Z,97730.59
2019-04-21T11:56:54.905Z,97738.17
2019-04-21T12:00:01.779Z,97726.11
2019-04-21T12:03:11.981Z,97724.49
2019-04-21T12:06:17.561Z,97721.89
2019-04-21T12:09:25.110Z,97721.92
2019-04-21T12:12:31.394Z,97726.17
2019-04-21T12:15:39.047Z,97717.56
2019-04-21T12:18:47.199Z,97716.38
2019-04-21T12:22:05.026Z,97711.39
2019-04-21T12:25:07.175Z,97704.28
2019-04-21T12:28:47.934Z,97698.78
2019-04-21T12:32:12.425Z,97697.11
2019-04-21T12:35:19.731Z,97690.97
2019-04-21T12:38:36.445Z,97680.52
2019-04-21T12:41:36.308Z,97680.59
2019-04-21T12:44:43.899Z,97671.53
2019-04-21T12:47:52.428Z,97672.38
2019-04-21T12:50:59.802Z,97665.71
2019-04-21T12:54:08.037Z,97651.38
2019-04-21T12:57:14.316Z,97650.16
2019-04-21T13:00:22.825Z,97661.97
2019-04-21T13:03:30.374Z,97653.76
2019-04-21T13:06:37.372Z,97647.49
2019-04-21T13:09:48.343Z,97633.47
2019-04-21T13:12:56.261Z,97633.43
2019-04-21T13:16:03.248Z,97636.32
2019-04-21T13:19:09.642Z,97637.03
2019-04-21T13:22:16.282Z,97630.98
2019-04-21T13:25:25.611Z,97626.49
2019-04-21T13:28:32.521Z,97612.45
2019-04-21T13:31:38.728Z,97607.69
2019-04-21T13:34:46.281Z,97603.80
2019-04-21T13:37:54.259Z,97607.36
2019-04-21T13:41:25.791Z,97606.41
2019-04-21T13:44:19.668Z,97598.31
2019-04-21T13:47:28.247Z,97593.94
2019-04-21T13:50:35.285Z,97591.35
2019-04-21T13:53:43.912Z,97584.45
2019-04-21T13:56:52.348Z,97585.16
2019-04-21T13:59:59.293Z,97583.30
2019-04-21T14:03:07.127Z,97582.55
2019-04-21T14:06:14.148Z,97574.44
2019-04-21T14:09:35.980Z,97574.21
2019-04-21T14:12:33.203Z,97575.08
2019-04-21T14:15:39.982Z,97561.23
2019-04-21T14:18:47.396Z,97563.63
2019-04-21T14:21:55.070Z,97551.48
2019-04-21T14:25:03.672Z,97554.77
2019-04-21T14:28:12.232Z,97555.46
2019-04-21T14:31:20.004Z,97546.02
2019-04-21T14:34:26.159Z,97542.00
2019-04-21T14:37:32.868Z,97540.08
2019-04-21T14:40:39.202Z,97544.27
2019-04-21T14:43:45.938Z,97540.08
2019-04-21T14:46:58.002Z,97545.79
2019-04-21T14:50:22.254Z,97538.91
2019-04-21T14:53:36.037Z,97538.56
2019-04-21T14:56:43.081Z,97538.74
2019-04-21T14:59:49.370Z,97531.28
2019-04-21T15:02:55.949Z,97531.08
2019-04-21T15:06:03.266Z,97530.48
2019-04-21T15:09:11.174Z,97527.84
2019-04-21T15:12:18.240Z,97522.39
2019-04-21T15:15:25.611Z,97514.56
2019-04-21T15:18:32.801Z,97516.20
2019-04-21T15:21:40.403Z,97517.22
2019-04-21T15:24:48.122Z,97513.98
2019-04-21T15:27:54.978Z,97512.92
2019-04-21T15:31:02.910Z,97518.99
2019-04-21T15:34:10.901Z,97509.95
2019-04-21T15:37:19.863Z,97509.82
2019-04-21T15:40:39.851Z,97504.73
2019-04-21T15:43:36.300Z,97506.70
2019-04-21T15:46:43.966Z,97500.20
2019-04-21T15:50:02.915Z,97498.30
2019-04-21T15:53:07.717Z,97495.05
2019-04-21T15:56:21.056Z,97496.46
2019-04-21T15:59:42.253Z,97489.95
2019-04-21T16:02:50.848Z,97484.28
2019-04-21T16:05:57.541Z,97484.39
2019-04-21T16:09:06.436Z,97482.69
2019-04-21T16:12:13.749Z,97475.38
2019-04-21T16:15:20.932Z,97481.52
2019-04-21T16:18:27.999Z,97476.95
2019-04-21T16:21:38.366Z,97475.02
2019-04-21T16:24:44.435Z,97471.63
2019-04-21T16:27:51.088Z,97473.91
2019-04-21T16:30:58.413Z,97469.77
2019-04-21T16:34:05.201Z,97469.77
2019-04-21T16:37:11.921Z,97464.90
2019-04-21T16:40:19.378Z,97469.08
2019-04-21T16:43:29.128Z,97466.36
2019-04-21T16:46:35.814Z,97455.08
2019-04-21T16:49:43.706Z,97447.63
2019-04-21T16:53:01.768Z,97453.41
2019-04-21T16:56:17.816Z,97460.30
2019-04-21T16:59:32.725Z,97457.63
2019-04-21T17:02:40.587Z,97455.09
2019-04-21T17:05:48.140Z,97448.45
2019-04-21T17:08:54.751Z,97447.84
2019-04-21T17:12:04.006Z,97447.22
2019-04-21T17:15:24.796Z,97448.98
2019-04-21T17:18:33.145Z,97443.58
2019-04-21T17:21:30.125Z,97445.44
2019-04-21T17:24:38.007Z,97442.61
2019-04-21T17:27:44.926Z,97442.20
2019-04-21T17:30:52.796Z,97443.83
2019-04-21T17:34:07.530Z,97444.61
2019-04-21T17:37:08.832Z,97440.84
2019-04-21T17:40:24.066Z,97446.72
2019-04-21T17:43:31.958Z,97437.97
2019-04-21T17:46:47.832Z,97435.63
2019-04-21T17:49:49.155Z,97434.94
2019-04-21T17:53:06.534Z,97434.98
2019-04-21T17:56:29.370Z,97444.20
2019-04-21T17:59:53.716Z,97440.69
2019-04-21T18:02:51.532Z,97444.42
2019-04-21T18:05:50.357Z,97445.31
2019-04-21T18:09:10.433Z,97444.23
2019-04-21T18:12:11.965Z,97444.33
2019-04-21T18:15:21.949Z,97445.50
2019-04-21T18:18:14.503Z,97447.74
2019-04-21T18:21:46.896Z,97446.14
2019-04-21T18:24:59.287Z,97443.34
2019-04-21T18:27:58.755Z,97444.13
2019-04-21T18:31:12.261Z,97445.64
2019-04-21T18:34:45.594Z,97444.89
2019-04-21T18:38:11.379Z,97442.44
2019-04-21T18:41:13.250Z,97449.33
2019-04-21T18:45:23.975Z,97451.84
2019-04-21T18:48:10.879Z,97449.92
2019-04-21T18:51:20.187Z,97454.17
2019-04-21T18:54:41.440Z,97449.70
2019-04-21T18:57:41.814Z,97445.80
2019-04-21T19:00:44.178Z,97451.82
2019-04-21T19:03:54.574Z,97454.83
2019-04-21T19:07:15.570Z,97453.51
2019-04-21T19:10:36.391Z,97456.43
2019-04-21T19:14:15.818Z,97450.61
2019-04-21T19:17:39.589Z,97447.86
2019-04-21T19:23:34.612Z,97445.52
2019-04-21T19:26:38.890Z,97448.59
2019-04-21T19:29:45.181Z,97443.27
2019-04-21T19:32:45.398Z,97443.38
2019-04-21T19:35:41.520Z,97448.92
2019-04-21T19:38:58.660Z,97444.12
2019-04-21T19:42:03.111Z,97450.22
2019-04-21T19:45:17.602Z,97452.77
2019-04-21T19:48:33.290Z,97452.58
2019-04-21T19:51:36.474Z,97452.12
2019-04-21T19:54:36.384Z,97450.41
2019-04-21T19:57:41.044Z,97446.69
2019-04-21T20:00:50.788Z,97446.09
2019-04-21T20:04:00.541Z,97443.44
2019-04-21T20:07:20.861Z,97445.00
2019-04-21T20:10:35.009Z,97443.73
2019-04-21T20:13:59.817Z,97444.58
2019-04-21T20:16:44.884Z,97436.77
2019-04-21T20:19:38.401Z,97433.21
2019-04-21T20:22:50.336Z,97433.70
2019-04-21T20:26:00.424Z,97431.48
2019-04-21T20:29:22.172Z,97431.20
2019-04-21T20:35:46.570Z,97424.93
2019-04-21T20:38:39.264Z,97426.28
2019-04-21T20:41:46.763Z,97426.66
2019-04-21T20:45:16.634Z,97420.67
2019-04-21T20:47:54.622Z,97420.42
2019-04-21T20:51:18.610Z,97416.11
2019-04-21T20:54:27.115Z,97418.80
2019-04-21T20:57:32.859Z,97416.88
2019-04-21T21:00:48.750Z,97414.54
2019-04-21T21:03:47.933Z,97418.95
2019-04-21T21:07:04.536Z,97413.67
2019-04-21T21:10:10.950Z,97416.70
2019-04-21T21:16:41.641Z,97414.78
2019-04-21T21:19:40.099Z,97414.32
2019-04-21T21:22:46.571Z,97417.19
2019-04-21T21:26:00.645Z,97403.98
2019-04-21T21:29:00.427Z,97409.30
2019-04-21T21:35:18.997Z,97399.76
2019-04-21T21:38:30.871Z,97396.40
2019-04-21T21:44:30.341Z,97403.11
2019-04-21T21:47:53.354Z,97396.25
2019-04-21T21:50:57.659Z,97393.03
2019-04-21T21:53:52.896Z,97398.66
2019-04-21T21:57:00.664Z,97395.09
2019-04-21T22:00:12.393Z,97391.63
2019-04-21T22:03:27.428Z,97394.85
2019-04-21T22:06:41.001Z,97391.38
2019-04-21T22:09:36.966Z,97386.56
2019-04-21T22:12:53.969Z,97390.31
2019-04-21T22:15:56.481Z,97387.61
2019-04-21T22:19:14.288Z,97391.67
2019-04-21T22:22:23.335Z,97386.52
2019-04-21T22:25:24.313Z,97378.60
2019-04-21T22:28:25.503Z,97382.95
2019-04-21T22:31:37.101Z,97380.24
2019-04-21T22:34:48.716Z,97378.86
2019-04-21T22:38:02.307Z,97372.30
2019-04-21T22:41:09.879Z,97373.50
2019-04-21T22:44:06.853Z,97367.12
2019-04-21T22:47:18.379Z,97371.77
2019-04-21T22:50:30.694Z,97362.52
2019-04-21T22:53:44.558Z,97360.76
2019-04-21T22:56:56.280Z,97356.64
2019-04-21T22:59:59.766Z,97354.55
2019-04-21T23:03:09.886Z,97364.42
2019-04-21T23:06:19.595Z,97363.78
2019-04-21T23:09:19.588Z,97372.77
2019-04-21T23:12:30.702Z,97370.35
2019-04-21T23:15:43.922Z,97370.01
2019-04-21T23:18:59.373Z,97371.20
2019-04-21T23:22:09.516Z,97369.83
2019-04-21T23:25:18.157Z,97367.19
2019-04-21T23:28:22.219Z,97363.27
2019-04-21T23:31:34.425Z,97366.09
2019-04-21T23:34:34.066Z,97361.45
2019-04-21T23:37:44.938Z,97357.48
2019-04-21T23:40:48.479Z,97350.48
2019-04-21T23:44:00.600Z,97346.62
2019-04-21T23:47:04.789Z,97351.00
2019-04-21T23:50:22.152Z,97351.30
2019-04-21T23:53:19.459Z,97344.23
2019-04-21T23:56:33.055Z,97339.05
2019-04-21T23:59:40.995Z,97339.05
